sensor_id;sensor_type;location;lat;lon;timestamp;pressure;altitude;pressure_sealevel;temperature;humidity
13476;BME280;6810;63.824;20.288;2023-02-23T00:02:40;101158.72;;;-0.86;100.00
13476;BME280;6810;63.824;20.288;2023-02-23T00:05:29;101152.59;;;-0.85;100.00
13476;BME280;6810;63.824;20.288;2023-02-23T00:08:16;101156.09;;;-0.86;100.00
13476;BME280;6810;63.824;20.288;2023-02-23T00:11:08;101116.09;;;-1.06;100.00
13476;BME280;6810;63.824;20.288;2023-02-23T00:13:55;101131.66;;;-0.86;100.00
13476;BME280;6810;63.824;20.288;2023-02-23T00:16:42;101113.41;;;-0.97;100.00
13476;BME280;6810;63.824;20.288;2023-02-23T00:19:29;101126.44;;;-0.85;100.00
13476;BME280;6810;63.824;20.288;2023-02-23T00:22:16;101115.09;;;-0.87;100.00
13476;BME280;6810;63.824;20.288;2023-02-23T00:25:03;101107.22;;;-0.84;100.00
13476;BME280;6810;63.824;20.288;2023-02-23T00:27:51;101103.75;;;-0.83;100.00
13476;BME280;6810;63.824;20.288;2023-02-23T00:30:38;101105.47;;;-0.82;100.00
13476;BME280;6810;63.824;20.288;2023-02-23T00:33:25;101101.13;;;-0.83;100.00
13476;BME280;6810;63.824;20.288;2023-02-23T00:36:13;101099.34;;;-0.81;100.00
13476;BME280;6810;63.824;20.288;2023-02-23T00:39:06;101099.34;;;-0.81;100.00
13476;BME280;6810;63.824;20.288;2023-02-23T00:41:54;101082.81;;;-0.81;100.00
13476;BME280;6810;63.824;20.288;2023-02-23T00:44:42;101076.69;;;-0.80;100.00
13476;BME280;6810;63.824;20.288;2023-02-23T00:47:29;101066.22;;;-0.80;100.00
13476;BME280;6810;63.824;20.288;2023-02-23T00:50:16;101066.22;;;-0.80;100.00
13476;BME280;6810;63.824;20.288;2023-02-23T00:53:03;101063.59;;;-0.80;100.00
13476;BME280;6810;63.824;20.288;2023-02-23T00:55:50;101050.53;;;-0.79;100.00
13476;BME280;6810;63.824;20.288;2023-02-23T00:58:37;101049.63;;;-0.78;100.00
13476;BME280;6810;63.824;20.288;2023-02-23T01:01:25;101035.69;;;-0.77;100.00
13476;BME280;6810;63.824;20.288;2023-02-23T01:04:13;101025.22;;;-0.78;100.00
13476;BME280;6810;63.824;20.288;2023-02-23T01:07:00;101019.13;;;-0.77;100.00
13476;BME280;6810;63.824;20.288;2023-02-23T01:09:48;101004.31;;;-0.80;100.00
13476;BME280;6810;63.824;20.288;2023-02-23T01:12:36;100995.56;;;-0.77;100.00
13476;BME280;6810;63.824;20.288;2023-02-23T01:15:23;100990.31;;;-0.74;100.00
13476;BME280;6810;63.824;20.288;2023-02-23T01:18:10;100991.16;;;-0.72;100.00
13476;BME280;6810;63.824;20.288;2023-02-23T01:20:57;100978.94;;;-0.72;100.00
13476;BME280;6810;63.824;20.288;2023-02-23T01:23:45;100945.97;;;-0.89;100.00
13476;BME280;6810;63.824;20.288;2023-02-23T01:26:36;100959.78;;;-0.74;100.00
13476;BME280;6810;63.824;20.288;2023-02-23T01:29:24;100934.59;;;-0.85;100.00
13476;BME280;6810;63.824;20.288;2023-02-23T01:32:12;100961.47;;;-0.70;100.00
13476;BME280;6810;63.824;20.288;2023-02-23T01:34:59;100882.44;;;-1.02;100.00
13476;BME280;6810;63.824;20.288;2023-02-23T01:37:48;100932.66;;;-0.67;100.00
13476;BME280;6810;63.824;20.288;2023-02-23T01:40:35;100917.91;;;-0.74;100.00
13476;BME280;6810;63.824;20.288;2023-02-23T01:43:22;100919.59;;;-0.68;100.00
13476;BME280;6810;63.824;20.288;2023-02-23T01:46:09;100925.66;;;-0.62;100.00
13476;BME280;6810;63.824;20.288;2023-02-23T01:48:56;100919.53;;;-0.61;100.00
13476;BME280;6810;63.824;20.288;2023-02-23T01:51:49;100912.56;;;-0.60;100.00
13476;BME280;6810;63.824;20.288;2023-02-23T01:54:46;100888.22;;;-0.70;100.00
13476;BME280;6810;63.824;20.288;2023-02-23T01:57:35;100898.53;;;-0.56;100.00
13476;BME280;6810;63.824;20.288;2023-02-23T02:00:22;100893.31;;;-0.56;100.00
13476;BME280;6810;63.824;20.288;2023-02-23T02:03:23;100881.06;;;-0.54;100.00
13476;BME280;6810;63.824;20.288;2023-02-23T02:06:16;100832.50;;;-0.79;100.00
13476;BME280;6810;63.824;20.288;2023-02-23T02:09:10;100873.22;;;-0.53;100.00
13476;BME280;6810;63.824;20.288;2023-02-23T02:11:59;100867.97;;;-0.53;100.00
13476;BME280;6810;63.824;20.288;2023-02-23T02:14:46;100855.75;;;-0.52;100.00
13476;BME280;6810;63.824;20.288;2023-02-23T02:27:29;100836.53;;;-0.50;100.00
13476;BME280;6810;63.824;20.288;2023-02-23T02:42:49;100813.00;;;-0.53;100.00
13476;BME280;6810;63.824;20.288;2023-02-23T02:45:54;100812.13;;;-0.52;100.00
13476;BME280;6810;63.824;20.288;2023-02-23T02:52:23;100787.72;;;-0.52;100.00
13476;BME280;6810;63.824;20.288;2023-02-23T02:58:00;100785.13;;;-0.54;100.00
13476;BME280;6810;63.824;20.288;2023-02-23T03:00:49;100774.66;;;-0.54;100.00
13476;BME280;6810;63.824;20.288;2023-02-23T03:03:41;100772.91;;;-0.55;100.00
13476;BME280;6810;63.824;20.288;2023-02-23T03:06:34;100766.81;;;-0.55;100.00
13476;BME280;6810;63.824;20.288;2023-02-23T03:09:48;100752.00;;;-0.58;100.00
13476;BME280;6810;63.824;20.288;2023-02-23T03:13:10;100751.13;;;-0.57;100.00
13476;BME280;6810;63.824;20.288;2023-02-23T03:16:12;100744.16;;;-0.59;100.00
13476;BME280;6810;63.824;20.288;2023-02-23T03:22:05;100727.63;;;-0.60;100.00
13476;BME280;6810;63.824;20.288;2023-02-23T03:25:18;100737.22;;;-0.60;100.00
13476;BME280;6810;63.824;20.288;2023-02-23T03:28:21;100718.94;;;-0.63;100.00
13476;BME280;6810;63.824;20.288;2023-02-23T03:34:16;100707.59;;;-0.64;100.00
13476;BME280;6810;63.824;20.288;2023-02-23T03:37:18;100705.88;;;-0.65;100.00
13476;BME280;6810;63.824;20.288;2023-02-23T03:40:17;100698.03;;;-0.65;100.00
13476;BME280;6810;63.824;20.288;2023-02-23T03:43:08;100680.69;;;-0.73;100.00
13476;BME280;6810;63.824;20.288;2023-02-23T03:45:57;100691.94;;;-0.67;100.00
13476;BME280;6810;63.824;20.288;2023-02-23T03:48:45;100691.94;;;-0.67;100.00
13476;BME280;6810;63.824;20.288;2023-02-23T03:51:34;100698.06;;;-0.68;100.00
13476;BME280;6810;63.824;20.288;2023-02-23T03:54:33;100683.31;;;-0.75;100.00
13476;BME280;6810;63.824;20.288;2023-02-23T03:57:22;100679.81;;;-0.72;100.00
13476;BME280;6810;63.824;20.288;2023-02-23T04:00:14;100683.28;;;-0.72;100.00
13476;BME280;6810;63.824;20.288;2023-02-23T04:03:02;100646.03;;;-0.89;100.00
13476;BME280;6810;63.824;20.288;2023-02-23T04:05:51;100645.16;;;-0.88;100.00
13476;BME280;6810;63.824;20.288;2023-02-23T04:08:40;100677.19;;;-0.72;100.00
13476;BME280;6810;63.824;20.288;2023-02-23T04:11:36;100651.22;;;-0.86;100.00
13476;BME280;6810;63.824;20.288;2023-02-23T04:14:30;100671.09;;;-0.73;100.00
13476;BME280;6810;63.824;20.288;2023-02-23T04:16:59;100655.47;;;-0.79;100.00
13476;BME280;6810;63.824;20.288;2023-02-23T04:19:28;100626.13;;;-1.00;100.00
13476;BME280;6810;63.824;20.288;2023-02-23T04:21:55;100645.06;;;-0.82;100.00
13476;BME280;6810;63.824;20.288;2023-02-23T04:24:22;100651.94;;;-0.76;100.00
13476;BME280;6810;63.824;20.288;2023-02-23T04:26:49;100657.19;;;-0.76;100.00
13476;BME280;6810;63.824;20.288;2023-02-23T04:29:36;100663.28;;;-0.76;100.00
13476;BME280;6810;63.824;20.288;2023-02-23T04:32:23;100645.88;;;-0.77;100.00
13476;BME280;6810;63.824;20.288;2023-02-23T04:35:11;100645.03;;;-0.80;100.00
13476;BME280;6810;63.824;20.288;2023-02-23T04:37:59;100646.75;;;-0.79;100.00
13476;BME280;6810;63.824;20.288;2023-02-23T04:40:46;100655.50;;;-0.80;100.00
13476;BME280;6810;63.824;20.288;2023-02-23T04:43:33;100652.00;;;-0.81;100.00
13476;BME280;6810;63.824;20.288;2023-02-23T04:46:20;100629.44;;;-0.86;100.00
13476;BME280;6810;63.824;20.288;2023-02-23T04:49:07;100615.59;;;-0.96;100.00
13476;BME280;6810;63.824;20.288;2023-02-23T04:51:54;100632.91;;;-0.84;100.00
13476;BME280;6810;63.824;20.288;2023-02-23T04:54:41;100607.88;;;-1.05;100.00
13476;BME280;6810;63.824;20.288;2023-02-23T04:57:28;100629.44;;;-0.88;100.00
13476;BME280;6810;63.824;20.288;2023-02-23T05:00:17;100631.19;;;-0.88;100.00
13476;BME280;6810;63.824;20.288;2023-02-23T05:03:04;100607.81;;;-0.99;100.00
13476;BME280;6810;63.824;20.288;2023-02-23T05:05:51;100625.13;;;-0.89;100.00
13476;BME280;6810;63.824;20.288;2023-02-23T05:08:38;100627.72;;;-0.89;100.00
13476;BME280;6810;63.824;20.288;2023-02-23T05:11:25;100623.38;;;-0.90;100.00
13476;BME280;6810;63.824;20.288;2023-02-23T05:14:12;100614.69;;;-0.90;100.00
13476;BME280;6810;63.824;20.288;2023-02-23T05:16:59;100619.03;;;-0.91;100.00
13476;BME280;6810;63.824;20.288;2023-02-23T05:19:46;100626.88;;;-0.91;100.00
13476;BME280;6810;63.824;20.288;2023-02-23T05:22:33;100617.31;;;-0.92;100.00
13476;BME280;6810;63.824;20.288;2023-02-23T05:25:20;100610.41;;;-0.99;100.00
13476;BME280;6810;63.824;20.288;2023-02-23T05:28:07;100601.72;;;-1.01;100.00
13476;BME280;6810;63.824;20.288;2023-02-23T05:30:54;100565.34;;;-1.17;100.00
13476;BME280;6810;63.824;20.288;2023-02-23T05:33:41;100601.66;;;-0.95;100.00
13476;BME280;6810;63.824;20.288;2023-02-23T05:36:28;100606.91;;;-0.95;100.00
13476;BME280;6810;63.824;20.288;2023-02-23T05:39:15;100599.91;;;-0.96;100.00
13476;BME280;6810;63.824;20.288;2023-02-23T05:42:02;100601.69;;;-0.96;100.00
13476;BME280;6810;63.824;20.288;2023-02-23T05:44:49;100595.56;;;-0.97;100.00
13476;BME280;6810;63.824;20.288;2023-02-23T05:47:36;100593.81;;;-0.98;100.00
13476;BME280;6810;63.824;20.288;2023-02-23T05:50:23;100593.81;;;-0.98;100.00
13476;BME280;6810;63.824;20.288;2023-02-23T05:53:10;100586.13;;;-1.07;100.00
13476;BME280;6810;63.824;20.288;2023-02-23T05:55:57;100590.41;;;-1.01;100.00
13476;BME280;6810;63.824;20.288;2023-02-23T05:58:47;100577.38;;;-1.04;100.00
13476;BME280;6810;63.824;20.288;2023-02-23T06:01:34;100585.22;;;-1.03;100.00
13476;BME280;6810;63.824;20.288;2023-02-23T06:04:21;100565.25;;;-1.10;100.00
13476;BME280;6810;63.824;20.288;2023-02-23T06:07:08;100573.09;;;-1.11;100.00
13476;BME280;6810;63.824;20.288;2023-02-23T06:09:55;100582.63;;;-1.04;100.00
13476;BME280;6810;63.824;20.288;2023-02-23T06:12:42;100586.97;;;-1.05;100.00
13476;BME280;6810;63.824;20.288;2023-02-23T06:15:29;100573.91;;;-1.06;100.00
13476;BME280;6810;63.824;20.288;2023-02-23T06:18:16;100573.91;;;-1.06;100.00
13476;BME280;6810;63.824;20.288;2023-02-23T06:21:03;100574.81;;;-1.07;100.00
13476;BME280;6810;63.824;20.288;2023-02-23T06:23:50;100570.44;;;-1.08;100.00
13476;BME280;6810;63.824;20.288;2023-02-23T06:26:37;100555.72;;;-1.14;100.00
13476;BME280;6810;63.824;20.288;2023-02-23T06:29:25;100563.47;;;-1.08;100.00
13476;BME280;6810;63.824;20.288;2023-02-23T06:32:12;100563.44;;;-1.06;100.00
13476;BME280;6810;63.824;20.288;2023-02-23T06:35:01;100565.25;;;-1.10;100.00
13476;BME280;6810;63.824;20.288;2023-02-23T06:37:48;100563.47;;;-1.08;100.00
13476;BME280;6810;63.824;20.288;2023-02-23T06:40:36;100566.03;;;-1.05;100.00
13476;BME280;6810;63.824;20.288;2023-02-23T06:43:23;100570.38;;;-1.04;100.00
13476;BME280;6810;63.824;20.288;2023-02-23T06:46:10;100550.34;;;-1.05;100.00
13476;BME280;6810;63.824;20.288;2023-02-23T06:48:58;100548.63;;;-1.04;100.00
13476;BME280;6810;63.824;20.288;2023-02-23T06:51:45;100556.47;;;-1.04;100.00
13476;BME280;6810;63.824;20.288;2023-02-23T06:54:32;100553.00;;;-1.06;100.00
13476;BME280;6810;63.824;20.288;2023-02-23T06:57:19;100555.59;;;-1.05;100.00
13476;BME280;6810;63.824;20.288;2023-02-23T07:00:07;100554.69;;;-1.04;100.00
13476;BME280;6810;63.824;20.288;2023-02-23T07:02:55;100553.84;;;-1.04;100.00
13476;BME280;6810;63.824;20.288;2023-02-23T07:05:42;100556.44;;;-1.03;100.00
13476;BME280;6810;63.824;20.288;2023-02-23T07:08:29;100552.06;;;-1.04;100.00
13476;BME280;6810;63.824;20.288;2023-02-23T07:11:16;100559.06;;;-1.03;100.00
13476;BME280;6810;63.824;20.288;2023-02-23T07:14:03;100549.47;;;-1.04;100.00
13476;BME280;6810;63.824;20.288;2023-02-23T07:16:53;100550.34;;;-1.03;100.00
13476;BME280;6810;63.824;20.288;2023-02-23T07:19:40;100540.88;;;-1.12;100.00
